createdAt,value
2023-01-17T00:00:13.861Z,4.64
2023-01-17T00:01:13.964Z,4.48
2023-01-17T00:02:14.123Z,4.48
2023-01-17T00:03:14.264Z,4.48
2023-01-17T00:04:14.373Z,4.4
2023-01-17T00:05:14.471Z,4.32
2023-01-17T00:06:14.624Z,4.32
2023-01-17T00:07:14.731Z,4.32
2023-01-17T00:08:14.879Z,4.32
2023-01-17T00:09:15.029Z,4.32
2023-01-17T00:10:15.180Z,4.16
2023-01-17T00:11:15.337Z,4.32
2023-01-17T00:12:15.484Z,4.32
2023-01-17T00:13:15.583Z,4.4
2023-01-17T00:14:15.736Z,4.32
2023-01-17T00:15:15.887Z,4.16
2023-01-17T00:16:16.096Z,3.92
2023-01-17T00:17:16.192Z,4
2023-01-17T00:18:16.342Z,4
2023-01-17T00:19:16.496Z,4
2023-01-17T00:20:18.145Z,4.16
2023-01-17T00:21:16.700Z,4.08
2023-01-17T00:22:16.802Z,4.08
2023-01-17T00:23:16.945Z,4.08
2023-01-17T00:24:17.055Z,4.08
2023-01-17T00:25:17.201Z,4.08
2023-01-17T00:26:17.352Z,4.16
2023-01-17T00:27:17.505Z,4.16
2023-01-17T00:28:17.657Z,4.08
2023-01-17T00:29:17.761Z,4.08
2023-01-17T00:30:17.913Z,4.08
2023-01-17T00:31:18.103Z,4.08
2023-01-17T00:32:18.160Z,4.08
2023-01-17T00:33:18.314Z,4.16
2023-01-17T00:34:18.466Z,4.16
2023-01-17T00:35:18.617Z,4.08
2023-01-17T00:36:18.768Z,4
2023-01-17T00:37:18.921Z,4.08
2023-01-17T00:38:19.083Z,4.08
2023-01-17T00:39:19.222Z,4.08
2023-01-17T00:40:19.381Z,4.08
2023-01-17T00:41:19.473Z,4
2023-01-17T00:42:19.574Z,4
2023-01-17T00:43:19.729Z,3.92
2023-01-17T00:44:19.878Z,3.92
2023-01-17T00:45:20.050Z,3.92
2023-01-17T00:46:20.228Z,3.84
2023-01-17T00:47:20.337Z,3.84
2023-01-17T00:48:20.435Z,3.92
2023-01-17T00:49:20.583Z,3.92
2023-01-17T00:55:22.415Z,3.92
2023-01-17T00:56:21.561Z,3.92
2023-01-17T00:57:21.699Z,3.92
2023-01-17T00:58:21.807Z,4
2023-01-17T00:59:22.164Z,4
2023-01-17T01:00:22.102Z,4
2023-01-17T01:01:22.734Z,4
2023-01-17T01:02:22.812Z,3.92
2023-01-17T01:03:22.556Z,3.92
2023-01-17T01:04:23.004Z,4
2023-01-17T01:05:22.838Z,4
2023-01-17T01:06:22.906Z,3.92
2023-01-17T01:07:23.007Z,4
2023-01-17T01:08:23.158Z,4
2023-01-17T01:09:23.309Z,4
2023-01-17T01:10:23.417Z,3.92
2023-01-17T01:11:23.576Z,4
2023-01-17T01:12:23.721Z,3.92
2023-01-17T01:13:23.879Z,3.92
2023-01-17T01:14:24.041Z,4
2023-01-17T01:15:24.173Z,3.92
2023-01-17T01:16:24.424Z,4
2023-01-17T01:17:24.482Z,4
2023-01-17T01:18:24.651Z,4
2023-01-17T01:19:24.814Z,4
2023-01-17T01:20:24.936Z,4
2023-01-17T01:21:25.080Z,4
2023-01-17T01:22:25.187Z,4
2023-01-17T01:23:25.334Z,4
2023-01-17T01:24:25.488Z,4
2023-01-17T01:25:25.708Z,4
2023-01-17T01:26:25.789Z,4
2023-01-17T01:27:25.945Z,4
2023-01-17T01:28:26.045Z,4
2023-01-17T01:29:26.202Z,4
2023-01-17T01:30:26.311Z,4
2023-01-17T01:31:26.462Z,4
2023-01-17T01:32:26.603Z,4
2023-01-17T01:33:26.749Z,4
2023-01-17T01:34:26.979Z,4
2023-01-17T01:35:27.063Z,4
2023-01-17T01:36:27.221Z,4.32
2023-01-17T01:37:27.320Z,4.16
2023-01-17T01:38:27.478Z,4.08
2023-01-17T01:39:27.612Z,4
2023-01-17T01:40:27.769Z,4
2023-01-17T01:41:27.909Z,4
2023-01-17T01:42:28.071Z,4.08
2023-01-17T01:43:28.213Z,4.08
2023-01-17T01:44:28.368Z,4.08
2023-01-17T01:45:28.581Z,4
2023-01-17T01:46:28.669Z,4
2023-01-17T01:47:28.840Z,4.08
2023-01-17T01:48:28.979Z,4.08
2023-01-17T01:49:29.127Z,4.16
2023-01-17T01:50:29.275Z,4.16
2023-01-17T01:51:29.381Z,4
2023-01-17T01:52:29.541Z,4
2023-01-17T01:53:29.675Z,4.08
2023-01-17T01:54:29.786Z,4
2023-01-17T01:55:29.934Z,4
2023-01-17T01:56:30.085Z,4
2023-01-17T01:57:30.186Z,4
2023-01-17T01:58:30.341Z,4
2023-01-17T01:59:30.439Z,4.08
2023-01-17T02:00:30.592Z,4
2023-01-17T02:01:30.840Z,4
2023-01-17T02:02:30.850Z,4
2023-01-17T02:03:30.999Z,4
2023-01-17T02:04:31.147Z,4.16
2023-01-17T02:05:31.246Z,4.08
2023-01-17T02:06:31.410Z,4
2023-01-17T02:07:31.558Z,4
2023-01-17T02:08:31.656Z,3.92
2023-01-17T02:09:31.802Z,4
2023-01-17T02:10:31.954Z,3.92
2023-01-17T02:11:32.060Z,3.92
2023-01-17T02:12:32.208Z,3.84
2023-01-17T02:13:32.313Z,3.92
2023-01-17T02:14:32.463Z,4
2023-01-17T02:15:32.567Z,3.92
2023-01-17T02:16:32.711Z,4
2023-01-17T02:17:32.815Z,3.92
2023-01-17T02:18:32.969Z,4
2023-01-17T02:19:33.120Z,4
2023-01-17T02:20:33.269Z,4
2023-01-17T02:21:33.372Z,4
2023-01-17T02:22:33.531Z,4
2023-01-17T02:23:33.668Z,3.92
2023-01-17T02:24:33.775Z,3.92
2023-01-17T02:25:33.927Z,3.92
2023-01-17T02:26:34.079Z,3.92
2023-01-17T02:27:34.184Z,3.92
2023-01-17T02:28:34.344Z,4
2023-01-17T02:29:34.490Z,4
2023-01-17T02:30:34.603Z,4
2023-01-17T02:31:34.807Z,4
2023-01-17T02:32:34.890Z,4.08
2023-01-17T02:33:34.995Z,3.92
2023-01-17T02:34:35.155Z,3.92
2023-01-17T02:35:35.300Z,3.92
2023-01-17T02:36:35.421Z,3.84
2023-01-17T02:37:35.617Z,3.84
2023-01-17T02:38:35.800Z,3.84
2023-01-17T02:39:35.949Z,3.68
2023-01-17T02:40:36.100Z,3.84
2023-01-17T02:41:36.250Z,3.84
2023-01-17T02:42:36.419Z,3.84
2023-01-17T02:43:36.553Z,3.84
2023-01-17T02:44:36.705Z,3.68
2023-01-17T02:45:36.911Z,3.92
2023-01-17T02:46:36.962Z,3.92
2023-01-17T02:47:37.109Z,3.84
2023-01-17T02:48:37.262Z,3.68
2023-01-17T02:49:37.413Z,3.68
2023-01-17T02:50:37.560Z,3.68
2023-01-17T02:51:37.715Z,3.68
2023-01-17T02:52:37.866Z,3.6
2023-01-17T02:53:37.968Z,3.6
2023-01-17T02:54:38.155Z,3.6
2023-01-17T02:55:38.275Z,3.6
2023-01-17T02:56:38.429Z,3.6
2023-01-17T02:57:38.525Z,3.52
2023-01-17T02:58:38.626Z,3.6
2023-01-17T02:59:38.782Z,3.6
2023-01-17T03:00:38.880Z,3.6
2023-01-17T03:01:39.062Z,3.68
2023-01-17T03:02:39.101Z,3.6
2023-01-17T03:03:39.182Z,3.52
2023-01-17T03:04:39.344Z,3.52
2023-01-17T03:05:39.486Z,3.52
2023-01-17T03:06:39.636Z,3.52
2023-01-17T03:07:39.794Z,3.52
2023-01-17T03:08:39.893Z,3.52
2023-01-17T03:09:40.039Z,3.52
2023-01-17T03:10:40.140Z,3.44
2023-01-17T03:11:40.247Z,3.6
2023-01-17T03:12:40.397Z,3.52
2023-01-17T03:13:40.551Z,3.44
2023-01-17T03:14:40.724Z,3.6
2023-01-17T03:15:40.804Z,3.52
2023-01-17T03:16:41.021Z,3.52
2023-01-17T03:17:41.122Z,3.44
2023-01-17T03:18:41.259Z,3.52
2023-01-17T03:19:41.889Z,3.52
2023-01-17T03:20:41.510Z,3.44
2023-01-17T03:21:41.674Z,3.44
2023-01-17T03:22:41.805Z,3.52
2023-01-17T03:23:42.420Z,3.44
2023-01-17T03:24:42.065Z,3.44
2023-01-17T03:25:42.681Z,3.44
2023-01-17T03:26:42.264Z,3.44
2023-01-17T03:27:42.417Z,3.44
2023-01-17T03:28:42.572Z,3.44
2023-01-17T03:29:42.747Z,3.44
2023-01-17T03:30:42.890Z,3.44
2023-01-17T03:31:43.042Z,3.28
2023-01-17T03:32:43.136Z,3.28
2023-01-17T03:33:43.280Z,3.2
2023-01-17T03:34:43.440Z,3.2
2023-01-17T03:35:43.576Z,3.2
2023-01-17T03:36:43.731Z,3.2
2023-01-17T03:37:43.882Z,3.2
2023-01-17T03:38:44.032Z,3.12
2023-01-17T03:39:44.187Z,3.12
2023-01-17T03:40:44.335Z,3.12
2023-01-17T03:41:44.493Z,3.2
2023-01-17T03:42:44.587Z,3.12
2023-01-17T03:43:44.746Z,3.28
2023-01-17T03:44:44.894Z,3.2
2023-01-17T03:45:45.064Z,3.04
2023-01-17T03:46:45.200Z,2.88
2023-01-17T03:47:45.343Z,3.04
2023-01-17T03:48:45.507Z,2.88
2023-01-17T03:49:45.656Z,2.8
2023-01-17T03:50:45.751Z,3.04
2023-01-17T03:51:45.902Z,3.04
2023-01-17T03:52:46.008Z,3.04
2023-01-17T03:53:46.153Z,3.12
2023-01-17T03:54:46.259Z,3.12
2023-01-17T03:55:46.355Z,3.2
2023-01-17T03:56:46.465Z,3.2
2023-01-17T03:57:46.561Z,3.28
2023-01-17T03:58:46.714Z,3.12
2023-01-17T03:59:46.864Z,3.12
2023-01-17T04:00:47.034Z,3.12
2023-01-17T04:01:47.210Z,3.04
2023-01-17T04:02:47.334Z,3.04
2023-01-17T04:03:47.426Z,3.12
2023-01-17T04:04:47.571Z,3.04
2023-01-17T04:05:47.812Z,3.04
2023-01-17T04:06:47.836Z,3.04
2023-01-17T04:07:47.976Z,2.88
2023-01-17T04:08:48.090Z,2.72
2023-01-17T04:09:48.228Z,2.8
2023-01-17T04:10:48.379Z,3.04
2023-01-17T04:11:48.527Z,2.88
2023-01-17T04:12:48.684Z,3.04
2023-01-17T04:13:48.831Z,2.88
2023-01-17T04:14:48.990Z,2.8
2023-01-17T04:15:49.098Z,2.88
2023-01-17T04:16:49.300Z,3.04
2023-01-17T04:17:49.393Z,2.8
2023-01-17T04:18:49.544Z,2.72
2023-01-17T04:19:49.694Z,2.8
2023-01-17T04:20:49.850Z,2.8
2023-01-17T04:21:49.999Z,2.88
2023-01-17T04:22:50.147Z,3.12
2023-01-17T04:23:50.302Z,2.88
2023-01-17T04:24:50.405Z,3.12
2023-01-17T04:25:50.551Z,3.12
2023-01-17T04:26:50.658Z,3.04
2023-01-17T04:27:50.821Z,3.04
2023-01-17T04:28:50.958Z,3.12
2023-01-17T04:29:51.108Z,2.88
2023-01-17T04:30:51.275Z,3.04
2023-01-17T04:31:51.412Z,3.04
2023-01-17T04:32:51.517Z,2.88
2023-01-17T04:33:51.664Z,3.04
2023-01-17T04:34:51.770Z,3.12
2023-01-17T04:35:52.269Z,3.12
2023-01-17T04:36:52.417Z,3.2
2023-01-17T04:37:52.179Z,3.12
2023-01-17T04:38:52.320Z,3.12
2023-01-17T04:39:52.378Z,3.2
2023-01-17T04:40:52.526Z,3.12
2023-01-17T04:41:52.675Z,3.2
2023-01-17T04:42:52.794Z,3.12
2023-01-17T04:43:52.879Z,3.12
2023-01-17T04:44:53.031Z,3.12
2023-01-17T04:45:53.192Z,3.2
2023-01-17T04:46:53.343Z,3.12
2023-01-17T04:47:53.481Z,3.04
2023-01-17T04:48:53.635Z,3.12
2023-01-17T04:49:53.798Z,3.2
2023-01-17T04:50:53.938Z,3.12
2023-01-17T04:51:54.042Z,3.2
2023-01-17T04:52:54.191Z,3.2
2023-01-17T04:53:54.344Z,3.2
2023-01-17T04:54:54.450Z,3.12
2023-01-17T04:55:54.544Z,3.12
2023-01-17T04:56:54.706Z,3.12
2023-01-17T04:57:54.851Z,3.12
2023-01-17T04:58:55.007Z,3.12
2023-01-17T04:59:55.153Z,3.12
2023-01-17T05:00:55.276Z,3.12
2023-01-17T05:01:55.449Z,3.04
2023-01-17T05:02:55.653Z,3.04
2023-01-17T05:03:55.706Z,3.04
2023-01-17T05:04:55.808Z,3.12
2023-01-17T05:05:55.958Z,3.12
2023-01-17T05:06:56.118Z,2.88
2023-01-17T05:07:56.263Z,2.72
2023-01-17T05:08:56.416Z,2.8
2023-01-17T05:09:56.570Z,3.04
2023-01-17T05:10:56.723Z,2.88
2023-01-17T05:11:56.828Z,3.04
2023-01-17T05:12:57.002Z,2.88
2023-01-17T05:13:57.074Z,3.04
2023-01-17T05:14:57.226Z,2.88
2023-01-17T05:15:57.444Z,2.88
2023-01-17T05:16:57.483Z,2.8
2023-01-17T05:17:57.634Z,3.04
2023-01-17T05:18:57.779Z,3.12
2023-01-17T05:19:57.932Z,3.04
2023-01-17T05:20:58.081Z,3.04
2023-01-17T05:21:58.231Z,2.88
2023-01-17T05:22:58.395Z,2.88
2023-01-17T05:23:58.490Z,2.88
2023-01-17T05:24:58.644Z,2.8
2023-01-17T05:25:58.787Z,2.88
2023-01-17T05:26:58.943Z,2.8
2023-01-17T05:27:59.092Z,2.88
2023-01-17T05:28:59.249Z,2.8
2023-01-17T05:29:59.398Z,2.88
2023-01-17T05:30:59.631Z,2.88
2023-01-17T05:31:59.655Z,3.04
2023-01-17T05:32:59.796Z,3.04
2023-01-17T05:33:59.855Z,2.88
2023-01-17T05:35:00.000Z,3.12
2023-01-17T05:36:00.138Z,3.04
2023-01-17T05:37:00.255Z,2.88
2023-01-17T05:38:00.406Z,2.88
2023-01-17T05:39:00.561Z,2.8
2023-01-17T05:40:00.708Z,2.88
2023-01-17T05:41:00.865Z,2.8
2023-01-17T05:42:01.013Z,2.8
2023-01-17T05:43:01.129Z,2.88
2023-01-17T05:44:01.268Z,2.88
2023-01-17T05:45:01.427Z,3.04
2023-01-17T05:46:01.612Z,2.88
2023-01-17T05:47:01.724Z,2.88
2023-01-17T05:48:01.878Z,2.88
2023-01-17T05:49:01.982Z,2.88
2023-01-17T05:50:02.082Z,3.04
2023-01-17T05:51:02.237Z,2.88
2023-01-17T05:52:02.393Z,2.88
2023-01-17T05:53:02.547Z,2.8
2023-01-17T05:54:02.703Z,2.88
2023-01-17T05:55:02.802Z,2.88
2023-01-17T05:56:02.949Z,2.8
2023-01-17T05:57:03.085Z,2.8
2023-01-17T05:58:03.239Z,2.88
2023-01-17T05:59:03.336Z,2.88
2023-01-17T06:00:03.488Z,2.8
2023-01-17T06:01:03.668Z,2.88
2023-01-17T06:02:03.746Z,3.04
2023-01-17T06:03:03.891Z,2.88
2023-01-17T06:04:04.051Z,2.88
2023-01-17T06:05:04.211Z,2.88
2023-01-17T06:06:04.350Z,2.88
2023-01-17T06:07:04.504Z,2.8
2023-01-17T06:08:04.650Z,2.8
2023-01-17T06:09:04.800Z,2.8
2023-01-17T06:10:04.952Z,2.8
2023-01-17T06:11:05.102Z,2.72
2023-01-17T06:12:05.261Z,2.8
2023-01-17T06:13:05.418Z,2.88
2023-01-17T06:14:05.516Z,2.72
2023-01-17T06:15:05.665Z,2.72
2023-01-17T06:16:05.862Z,2.72
2023-01-17T06:17:05.914Z,2.48
2023-01-17T06:18:06.063Z,2.48
2023-01-17T06:19:06.168Z,2.48
2023-01-17T06:20:06.271Z,2.4
2023-01-17T06:21:06.417Z,2.48
2023-01-17T06:22:06.578Z,2.48
2023-01-17T06:23:07.219Z,2.4
2023-01-17T06:24:07.337Z,2.48
2023-01-17T06:25:07.311Z,2.32
2023-01-17T06:26:07.633Z,2.4
2023-01-17T06:27:07.302Z,2.32
2023-01-17T06:28:07.435Z,2.24
2023-01-17T06:29:07.585Z,2.32
2023-01-17T06:30:07.739Z,2.08
2023-01-17T06:31:07.937Z,2.24
2023-01-17T06:32:08.046Z,2.32
2023-01-17T06:33:08.188Z,2.24
2023-01-17T06:34:08.352Z,2
2023-01-17T06:35:08.494Z,2.08
2023-01-17T06:36:08.652Z,2
2023-01-17T06:37:08.747Z,2
2023-01-17T06:38:08.897Z,1.92
2023-01-17T06:39:09.047Z,1.92
2023-01-17T06:40:09.206Z,1.84
2023-01-17T06:41:09.349Z,1.84
2023-01-17T06:42:09.523Z,1.68
2023-01-17T06:43:09.659Z,1.6
2023-01-17T06:44:09.806Z,1.84
2023-01-17T06:45:09.907Z,1.68
2023-01-17T06:46:10.115Z,1.52
2023-01-17T06:47:10.210Z,1.44
2023-01-17T06:48:10.378Z,1.52
2023-01-17T06:49:10.515Z,1.68
2023-01-17T06:50:10.670Z,1.68
2023-01-17T06:51:11.143Z,1.6
2023-01-17T06:52:10.920Z,1.84
2023-01-17T06:53:11.125Z,1.92
2023-01-17T06:54:11.175Z,1.92
2023-01-17T06:55:11.277Z,1.84
2023-01-17T06:56:11.422Z,1.92
2023-01-17T06:57:11.530Z,2
2023-01-17T06:58:11.705Z,2.08
2023-01-17T06:59:11.823Z,2.08
2023-01-17T07:00:11.975Z,2.08
2023-01-17T07:01:12.288Z,2
2023-01-17T07:02:12.249Z,2.08
2023-01-17T07:03:12.345Z,2.24
2023-01-17T07:04:12.494Z,2.24
2023-01-17T07:05:12.639Z,2.32
2023-01-17T07:06:12.788Z,2.24
2023-01-17T07:07:12.936Z,2.32
2023-01-17T07:08:13.045Z,2.32
2023-01-17T07:09:13.189Z,2.24
2023-01-17T07:10:13.348Z,2.24
2023-01-17T07:11:13.505Z,2.24
2023-01-17T07:12:13.643Z,2
2023-01-17T07:13:13.808Z,2
2023-01-17T07:14:13.911Z,1.92
2023-01-17T07:15:14.059Z,1.84
2023-01-17T07:16:14.175Z,1.68
2023-01-17T07:17:14.251Z,1.84
2023-01-17T07:18:14.402Z,1.84
2023-01-17T07:19:14.517Z,1.84
2023-01-17T07:20:14.669Z,1.84
2023-01-17T07:21:14.843Z,1.84
2023-01-17T07:22:14.962Z,1.84
2023-01-17T07:23:15.118Z,1.92
2023-01-17T07:24:15.272Z,1.68
2023-01-17T07:25:15.365Z,1.68
2023-01-17T07:26:15.469Z,1.68
2023-01-17T07:27:15.616Z,1.92
2023-01-17T07:28:15.777Z,1.92
2023-01-17T07:29:15.929Z,1.92
2023-01-17T07:30:16.109Z,2.08
2023-01-17T07:31:16.242Z,2
2023-01-17T07:32:16.276Z,2
2023-01-17T07:33:16.432Z,1.92
2023-01-17T07:34:16.583Z,2
2023-01-17T07:35:16.728Z,2.24
2023-01-17T07:36:16.878Z,2.32
2023-01-17T07:37:16.982Z,2.32
2023-01-17T07:38:17.085Z,2.32
2023-01-17T07:39:17.592Z,2.4
2023-01-17T07:40:17.740Z,2.4
2023-01-17T07:41:17.885Z,2.32
2023-01-17T07:42:17.702Z,2.4
2023-01-17T07:43:18.193Z,2.4
2023-01-17T07:44:18.002Z,2.4
2023-01-17T07:45:18.797Z,2.4
2023-01-17T07:46:18.289Z,2.4
2023-01-17T07:47:18.407Z,2.4
2023-01-17T07:48:18.547Z,2.4
2023-01-17T07:49:18.710Z,2.4
2023-01-17T07:50:18.847Z,2.48
2023-01-17T07:51:19.001Z,2.48
2023-01-17T07:52:19.154Z,2.4
2023-01-17T07:53:19.307Z,2.32
2023-01-17T07:54:19.456Z,2.32
2023-01-17T07:55:19.609Z,2.24
2023-01-17T07:56:19.761Z,2.24
2023-01-17T07:57:19.911Z,2.32
2023-01-17T07:58:20.065Z,2.4
2023-01-17T07:59:20.166Z,2.8
2023-01-17T08:00:20.323Z,2.72
2023-01-17T08:01:20.536Z,2.48
2023-01-17T08:02:20.620Z,2.64
2023-01-17T08:03:20.722Z,2.72
2023-01-17T08:04:20.885Z,2.8
2023-01-17T08:05:21.105Z,2.48
2023-01-17T08:06:21.129Z,2.64
2023-01-17T08:07:21.294Z,2.64
2023-01-17T08:08:21.393Z,2.4
2023-01-17T08:09:21.527Z,2.48
2023-01-17T08:10:21.682Z,2.64
2023-01-17T08:11:21.829Z,2.4
2023-01-17T08:12:21.935Z,2.32
2023-01-17T08:13:22.087Z,2.32
2023-01-17T08:14:22.245Z,2.24
2023-01-17T08:15:22.387Z,2.24
2023-01-17T08:16:22.574Z,2.24
2023-01-17T08:17:22.693Z,2.32
2023-01-17T08:18:22.848Z,2.4
2023-01-17T08:19:23.024Z,2.32
2023-01-17T08:20:23.153Z,2.24
2023-01-17T08:21:23.254Z,2.24
2023-01-17T08:22:23.400Z,2.24
2023-01-17T08:23:23.550Z,2.24
2023-01-17T08:24:23.703Z,2.24
2023-01-17T08:25:23.864Z,2.24
2023-01-17T08:26:23.964Z,2.24
2023-01-17T08:27:24.104Z,2.32
2023-01-17T08:28:24.259Z,2.32
2023-01-17T08:29:24.406Z,2.32
2023-01-17T08:30:24.831Z,2.48
2023-01-17T08:31:24.975Z,2.72
2023-01-17T08:32:25.028Z,3.12
2023-01-17T08:33:25.163Z,2.8
2023-01-17T08:34:25.267Z,3.2
2023-01-17T08:35:25.439Z,2.8
2023-01-17T08:36:25.569Z,2.48
2023-01-17T08:37:25.683Z,2.64
2023-01-17T08:38:25.823Z,2.48
2023-01-17T08:39:25.975Z,2.64
2023-01-17T08:40:26.125Z,2.64
2023-01-17T08:41:26.289Z,2.4
2023-01-17T08:42:26.430Z,2.4
2023-01-17T08:43:26.590Z,2.64
2023-01-17T08:44:26.689Z,2.4
2023-01-17T08:45:26.844Z,2.48
2023-01-17T08:46:26.934Z,2.32
2023-01-17T08:47:27.083Z,2.32
2023-01-17T08:48:27.232Z,2.24
2023-01-17T08:49:27.397Z,2.48
2023-01-17T08:50:27.537Z,4
2023-01-17T08:51:27.695Z,4.48
2023-01-17T08:52:27.846Z,4.32
2023-01-17T08:53:27.993Z,5.6
2023-01-17T08:54:28.144Z,6
2023-01-17T08:55:28.299Z,5.92
2023-01-17T08:56:28.432Z,5.92
2023-01-17T08:57:28.550Z,7.12
2023-01-17T08:58:30.542Z,7.2
2023-01-17T08:59:28.861Z,7.04
2023-01-17T09:00:28.959Z,6.8
2023-01-17T09:01:29.196Z,7.52
2023-01-17T09:02:29.260Z,6.72
2023-01-17T09:03:29.371Z,7.92
2023-01-17T09:04:29.551Z,7.84
2023-01-17T09:05:29.619Z,7.44
2023-01-17T09:06:29.779Z,7.28
2023-01-17T09:07:29.951Z,7.52
2023-01-17T09:08:30.608Z,8.4
2023-01-17T09:09:30.168Z,7.92
2023-01-17T09:10:30.318Z,7.68
2023-01-17T09:11:30.478Z,7.92
2023-01-17T09:12:30.619Z,7.52
2023-01-17T09:13:30.780Z,6.72
2023-01-17T09:14:30.923Z,7.2
2023-01-17T09:15:31.077Z,7.28
2023-01-17T09:16:31.232Z,7.04
2023-01-17T09:17:31.387Z,7.92
2023-01-17T09:18:31.483Z,7.12
2023-01-17T09:19:31.580Z,7.44
2023-01-17T09:20:31.745Z,7.6
2023-01-17T09:21:31.923Z,7.92
2023-01-17T09:22:32.032Z,7.6
2023-01-17T09:23:32.196Z,8.88
2023-01-17T09:24:32.347Z,8.24
2023-01-17T09:25:32.905Z,7.92
2023-01-17T09:26:33.018Z,8
2023-01-17T09:27:32.743Z,8.24
2023-01-17T09:28:32.905Z,7.04
2023-01-17T09:29:33.265Z,6.72
2023-01-17T09:30:33.240Z,7.44
2023-01-17T09:31:33.325Z,6.88
2023-01-17T09:32:33.462Z,7.12
2023-01-17T09:33:33.965Z,6.88
2023-01-17T09:34:33.763Z,6.8
2023-01-17T09:35:33.860Z,6.64
2023-01-17T09:36:34.021Z,7.28
2023-01-17T09:37:34.113Z,7.6
2023-01-17T09:38:34.265Z,7.28
2023-01-17T09:39:34.366Z,7.52
2023-01-17T09:40:34.462Z,7.68
2023-01-17T09:41:34.618Z,7.28
2023-01-17T09:42:34.760Z,7.92
2023-01-17T09:43:34.891Z,7.6
2023-01-17T09:44:35.042Z,8.48
2023-01-17T09:45:35.188Z,7.12
2023-01-17T09:46:35.224Z,6.64
2023-01-17T09:47:35.426Z,7.12
2023-01-17T09:48:35.525Z,6.88
2023-01-17T09:49:35.631Z,7.04
2023-01-17T09:50:35.775Z,6.64
2023-01-17T09:51:35.931Z,6.72
2023-01-17T09:52:36.084Z,7.2
2023-01-17T09:53:36.238Z,8.24
2023-01-17T09:54:36.391Z,8.72
2023-01-17T09:55:36.536Z,8.24
2023-01-17T09:56:36.686Z,7.28
2023-01-17T09:57:36.878Z,7.6
2023-01-17T09:58:37.039Z,7.28
2023-01-17T09:59:37.192Z,6.4
2023-01-17T10:00:37.394Z,7.04
2023-01-17T10:01:37.560Z,6.4
2023-01-17T10:02:37.659Z,7.52
2023-01-17T10:03:37.774Z,7.84
2023-01-17T10:04:37.810Z,8
2023-01-17T10:05:37.910Z,7.12
2023-01-17T10:06:38.047Z,7.92
2023-01-17T10:07:38.206Z,7.84
2023-01-17T10:08:38.299Z,6.64
2023-01-17T10:09:38.468Z,7.52
2023-01-17T10:10:38.600Z,8.24
2023-01-17T10:11:38.714Z,7.92
2023-01-17T10:12:38.861Z,8.8
2023-01-17T10:13:39.011Z,8.48
2023-01-17T10:14:39.160Z,8.639999
2023-01-17T10:15:39.320Z,8.72
2023-01-17T10:16:39.469Z,7.52
2023-01-17T10:17:39.611Z,8.32
2023-01-17T10:18:40.119Z,9.52
2023-01-17T10:19:39.870Z,8.32
2023-01-17T10:20:39.975Z,8.32
2023-01-17T10:21:40.129Z,8.32
2023-01-17T10:22:40.222Z,8
2023-01-17T10:23:40.375Z,8.72
2023-01-17T10:24:40.620Z,8.72
2023-01-17T10:25:40.777Z,8.08
2023-01-17T10:26:40.880Z,7.6
2023-01-17T10:27:41.031Z,8.32
2023-01-17T10:28:41.186Z,8.48
2023-01-17T10:29:41.346Z,8.4
2023-01-17T10:30:41.581Z,8.88
2023-01-17T10:31:41.597Z,9.2
2023-01-17T10:32:41.693Z,9.84
2023-01-17T10:33:41.798Z,9.12
2023-01-17T10:34:41.939Z,8.48
2023-01-17T10:35:42.090Z,9.52
2023-01-17T10:36:42.244Z,9.36
2023-01-17T10:37:42.699Z,9.52
2023-01-17T10:38:42.836Z,9.36
2023-01-17T10:39:42.955Z,8.8
2023-01-17T10:40:43.100Z,9.04
2023-01-17T10:41:43.251Z,8.88
2023-01-17T10:42:43.424Z,9.12
2023-01-17T10:43:43.562Z,10.48
2023-01-17T10:44:43.715Z,11.2
2023-01-17T10:45:43.915Z,9.84
2023-01-17T10:46:43.907Z,9.84
2023-01-17T10:47:44.067Z,10.48
2023-01-17T10:48:44.209Z,9.92
2023-01-17T10:49:44.361Z,10.719999
2023-01-17T10:50:44.463Z,11.12
2023-01-17T10:51:44.614Z,12.24
2023-01-17T10:52:44.765Z,11.04
2023-01-17T10:53:44.925Z,10.24
2023-01-17T10:54:45.021Z,10.48
2023-01-17T10:55:45.322Z,9.92
2023-01-17T10:56:45.481Z,10.08
2023-01-17T10:57:45.624Z,10.8
2023-01-17T10:58:45.782Z,10.8
2023-01-17T10:59:45.935Z,10.4
2023-01-17T11:00:46.133Z,9.679999
2023-01-17T11:01:46.320Z,8.639999
2023-01-17T11:02:46.362Z,8.24
2023-01-17T11:03:46.494Z,7.44
2023-01-17T11:04:46.633Z,6.4
2023-01-17T11:05:46.792Z,5.84
2023-01-17T11:06:57.711Z,6.72
2023-01-17T11:07:47.039Z,6.08
2023-01-17T11:08:47.195Z,5.6
2023-01-17T11:09:47.342Z,4.88
2023-01-17T11:10:47.502Z,5.12
2023-01-17T11:11:47.646Z,5.6
2023-01-17T11:12:47.802Z,5.52
2023-01-17T11:13:47.947Z,5.2
2023-01-17T11:14:48.048Z,5.6
2023-01-17T11:15:48.189Z,5.28
2023-01-17T11:16:48.305Z,5.6
2023-01-17T11:17:48.404Z,5.28
2023-01-17T11:18:48.507Z,5.2
2023-01-17T11:19:48.661Z,5.28
2023-01-17T11:20:48.826Z,5.12
2023-01-17T11:21:49.021Z,5.04
2023-01-17T11:22:49.161Z,5.44
2023-01-17T11:23:49.317Z,5.68
2023-01-17T11:24:49.467Z,5.84
2023-01-17T11:25:49.576Z,5.52
2023-01-17T11:26:49.744Z,5.44
2023-01-17T11:27:49.820Z,5.44
2023-01-17T11:28:49.985Z,5.44
2023-01-17T11:29:50.132Z,5.6
2023-01-17T11:30:50.344Z,5.12
2023-01-17T11:31:50.378Z,5.12
2023-01-17T11:32:50.477Z,4.8
2023-01-17T11:33:50.629Z,4.88
2023-01-17T11:34:50.785Z,4.8
2023-01-17T11:35:50.930Z,5.12
2023-01-17T11:36:51.046Z,4.48
2023-01-17T11:37:51.185Z,4.48
2023-01-17T11:38:51.333Z,4.16
2023-01-17T11:39:51.495Z,4.16
2023-01-17T11:40:51.642Z,4.32
2023-01-17T11:41:51.800Z,4.08
2023-01-17T11:42:51.938Z,3.92
2023-01-17T11:43:52.116Z,3.84
2023-01-17T11:44:52.248Z,3.68
2023-01-17T11:45:52.433Z,3.52
2023-01-17T11:46:52.549Z,3.6
2023-01-17T11:47:52.697Z,3.84
2023-01-17T11:48:55.023Z,3.92
2023-01-17T11:49:52.909Z,3.52
2023-01-17T11:50:53.052Z,3.6
2023-01-17T11:51:53.208Z,3.92
2023-01-17T11:52:53.320Z,3.84
2023-01-17T11:53:53.460Z,3.84
2023-01-17T11:54:53.566Z,3.2
2023-01-17T11:55:53.708Z,3.12
2023-01-17T11:56:53.863Z,3.28
2023-01-17T11:57:56.426Z,3.6
2023-01-17T11:58:54.171Z,3.52
2023-01-17T11:59:54.283Z,3.6
2023-01-17T12:00:55.060Z,3.52
2023-01-17T12:01:54.528Z,3.92
2023-01-17T12:02:54.671Z,4
2023-01-17T12:03:54.881Z,3.92
2023-01-17T12:04:55.023Z,4
2023-01-17T12:05:55.093Z,4
2023-01-17T12:06:57.849Z,4
2023-01-17T12:07:55.389Z,4.08
2023-01-17T12:08:55.550Z,3.92
2023-01-17T12:09:55.682Z,4
2023-01-17T12:10:55.786Z,3.84
2023-01-17T12:11:55.933Z,4.16
2023-01-17T12:12:56.081Z,5.12
2023-01-17T12:13:56.235Z,4.64
2023-01-17T12:14:56.389Z,5.6
2023-01-17T12:15:56.539Z,6.08
2023-01-17T12:16:56.600Z,6.32
2023-01-17T12:17:56.742Z,7.52
2023-01-17T12:18:56.899Z,8.24
2023-01-17T12:19:57.049Z,9.52
2023-01-17T12:20:57.214Z,8.24
2023-01-17T12:21:57.360Z,7.44
2023-01-17T12:22:57.502Z,6.8
2023-01-17T12:23:57.659Z,6.88
2023-01-17T12:24:57.800Z,7.04
2023-01-17T12:25:57.920Z,6.32
2023-01-17T12:26:58.060Z,7.04
2023-01-17T12:27:58.208Z,8.08
2023-01-17T12:28:58.355Z,7.28
2023-01-17T12:29:58.508Z,7.28
2023-01-17T12:30:58.700Z,7.84
2023-01-17T12:31:58.770Z,7.2
2023-01-17T12:32:58.915Z,6.88
2023-01-17T12:33:59.069Z,6.32
2023-01-17T12:34:59.168Z,5.52
2023-01-17T12:35:59.318Z,6.4
2023-01-17T12:36:59.479Z,5.84
2023-01-17T12:38:04.863Z,5.2
2023-01-17T12:38:59.730Z,5.68
2023-01-17T12:39:59.894Z,6.08
2023-01-17T12:41:00.058Z,6.08
2023-01-17T12:42:00.178Z,6.24
2023-01-17T12:43:00.281Z,5.92
2023-01-17T12:44:00.432Z,5.68
2023-01-17T12:45:00.587Z,5.6
2023-01-17T12:46:00.736Z,5.92
2023-01-17T12:47:00.845Z,6
2023-01-17T12:48:00.987Z,6.08
2023-01-17T12:49:01.136Z,5.28
2023-01-17T12:50:01.236Z,4.48
2023-01-17T12:51:01.386Z,4.8
2023-01-17T12:52:01.562Z,5.2
2023-01-17T12:53:01.697Z,4.72
2023-01-17T12:54:01.848Z,4.88
2023-01-17T12:55:01.953Z,4.32
2023-01-17T12:56:02.124Z,4.16
2023-01-17T12:57:02.324Z,4.48
2023-01-17T12:58:02.352Z,4.64
2023-01-17T12:59:02.506Z,5.04
2023-01-17T13:00:02.609Z,5.04
2023-01-17T13:01:02.857Z,4.8
2023-01-17T13:02:02.918Z,4.48
2023-01-17T13:03:02.958Z,4.16
2023-01-17T13:04:03.120Z,4.08
2023-01-17T13:05:03.265Z,4.16
2023-01-17T13:06:03.425Z,4.08
2023-01-17T13:07:03.570Z,4.08
2023-01-17T13:08:03.718Z,4.08
2023-01-17T13:09:03.816Z,4.08
2023-01-17T13:10:03.936Z,3.92
2023-01-17T13:11:04.078Z,3.84
2023-01-17T13:12:04.220Z,4
2023-01-17T13:13:04.383Z,4
2023-01-17T13:14:04.479Z,4.08
2023-01-17T13:15:04.632Z,3.84
2023-01-17T13:16:04.787Z,3.68
2023-01-17T13:17:04.991Z,3.6
2023-01-17T13:18:05.094Z,3.44
2023-01-17T13:19:05.229Z,3.52
2023-01-17T13:20:05.385Z,3.44
2023-01-17T13:21:05.535Z,3.44
2023-01-17T13:22:05.695Z,3.52
2023-01-17T13:23:05.841Z,3.52
2023-01-17T13:24:06.020Z,3.44
2023-01-17T13:25:06.139Z,3.12
2023-01-17T13:26:06.314Z,3.04
2023-01-17T13:27:06.395Z,2.88
2023-01-17T13:28:06.552Z,2.88
2023-01-17T13:29:06.695Z,2.88
2023-01-17T13:30:06.809Z,2.88
2023-01-17T13:31:06.995Z,2.8
2023-01-17T13:32:07.110Z,2.8
2023-01-17T13:33:07.281Z,2.8
2023-01-17T13:34:07.410Z,2.8
2023-01-17T13:35:07.588Z,2.72
2023-01-17T13:36:07.655Z,2.8
2023-01-17T13:37:07.807Z,2.8
2023-01-17T13:38:07.912Z,2.8